sensor_id;sensor_type;location;lat;lon;timestamp;temperature;humidity
54158;DHT22;40065;49.894;10.358;2024-02-23T00:01:13;9.40;99.90
54158;DHT22;40065;49.894;10.358;2024-02-23T00:06:15;9.40;99.90
54158;DHT22;40065;49.894;10.358;2024-02-23T00:11:17;9.40;99.90
54158;DHT22;40065;49.894;10.358;2024-02-23T00:16:19;9.30;99.90
54158;DHT22;40065;49.894;10.358;2024-02-23T00:21:21;9.20;99.90
54158;DHT22;40065;49.894;10.358;2024-02-23T00:26:23;9.10;99.90
54158;DHT22;40065;49.894;10.358;2024-02-23T00:31:25;9.10;99.90
54158;DHT22;40065;49.894;10.358;2024-02-23T00:36:27;9.00;99.90
54158;DHT22;40065;49.894;10.358;2024-02-23T00:41:28;8.90;99.90
54158;DHT22;40065;49.894;10.358;2024-02-23T00:46:31;8.80;99.90
54158;DHT22;40065;49.894;10.358;2024-02-23T00:51:32;8.80;99.90
54158;DHT22;40065;49.894;10.358;2024-02-23T00:56:34;8.80;99.90
54158;DHT22;40065;49.894;10.358;2024-02-23T01:01:51;8.70;99.90
54158;DHT22;40065;49.894;10.358;2024-02-23T01:06:53;8.60;99.90
54158;DHT22;40065;49.894;10.358;2024-02-23T01:11:54;8.50;99.90
54158;DHT22;40065;49.894;10.358;2024-02-23T01:16:57;8.40;99.90
54158;DHT22;40065;49.894;10.358;2024-02-23T01:21:58;8.30;99.90
54158;DHT22;40065;49.894;10.358;2024-02-23T01:27:04;8.20;99.90
54158;DHT22;40065;49.894;10.358;2024-02-23T01:32:06;8.20;99.90
54158;DHT22;40065;49.894;10.358;2024-02-23T01:37:08;8.10;99.90
54158;DHT22;40065;49.894;10.358;2024-02-23T01:42:10;8.00;99.90
54158;DHT22;40065;49.894;10.358;2024-02-23T01:47:12;8.00;99.90
54158;DHT22;40065;49.894;10.358;2024-02-23T01:52:15;8.00;99.90
54158;DHT22;40065;49.894;10.358;2024-02-23T01:57:17;7.90;99.90
54158;DHT22;40065;49.894;10.358;2024-02-23T02:02:39;7.90;99.90
54158;DHT22;40065;49.894;10.358;2024-02-23T02:07:42;7.70;99.90
54158;DHT22;40065;49.894;10.358;2024-02-23T02:12:43;7.60;99.90
54158;DHT22;40065;49.894;10.358;2024-02-23T02:17:45;7.60;99.90
54158;DHT22;40065;49.894;10.358;2024-02-23T02:22:47;7.60;99.90
54158;DHT22;40065;49.894;10.358;2024-02-23T02:27:49;7.60;99.90
54158;DHT22;40065;49.894;10.358;2024-02-23T02:32:51;7.50;99.90
54158;DHT22;40065;49.894;10.358;2024-02-23T02:37:53;7.50;99.90
54158;DHT22;40065;49.894;10.358;2024-02-23T02:42:55;7.30;99.90
54158;DHT22;40065;49.894;10.358;2024-02-23T02:47:59;7.30;99.90
54158;DHT22;40065;49.894;10.358;2024-02-23T02:53:01;7.20;99.90
54158;DHT22;40065;49.894;10.358;2024-02-23T02:58:03;7.10;99.90
54158;DHT22;40065;49.894;10.358;2024-02-23T03:03:05;7.10;99.90
54158;DHT22;40065;49.894;10.358;2024-02-23T03:08:07;7.10;99.90
54158;DHT22;40065;49.894;10.358;2024-02-23T03:13:09;7.00;99.90
54158;DHT22;40065;49.894;10.358;2024-02-23T03:18:11;7.00;99.90
54158;DHT22;40065;49.894;10.358;2024-02-23T03:23:14;7.10;99.90
54158;DHT22;40065;49.894;10.358;2024-02-23T03:28:16;7.00;99.90
54158;DHT22;40065;49.894;10.358;2024-02-23T03:33:18;7.00;99.90
54158;DHT22;40065;49.894;10.358;2024-02-23T03:38:20;6.90;99.90
54158;DHT22;40065;49.894;10.358;2024-02-23T03:43:22;6.80;99.90
54158;DHT22;40065;49.894;10.358;2024-02-23T03:48:24;6.60;99.90
54158;DHT22;40065;49.894;10.358;2024-02-23T03:53:26;6.60;99.90
54158;DHT22;40065;49.894;10.358;2024-02-23T03:58:27;6.60;99.90
54158;DHT22;40065;49.894;10.358;2024-02-23T04:03:29;6.60;99.90
54158;DHT22;40065;49.894;10.358;2024-02-23T04:08:31;6.70;99.90
54158;DHT22;40065;49.894;10.358;2024-02-23T04:13:33;6.50;99.90
54158;DHT22;40065;49.894;10.358;2024-02-23T04:18:35;6.40;99.90
54158;DHT22;40065;49.894;10.358;2024-02-23T04:23:37;6.30;99.90
54158;DHT22;40065;49.894;10.358;2024-02-23T04:28:42;6.10;99.90
54158;DHT22;40065;49.894;10.358;2024-02-23T04:33:44;6.00;99.90
54158;DHT22;40065;49.894;10.358;2024-02-23T04:38:46;5.90;99.90
54158;DHT22;40065;49.894;10.358;2024-02-23T04:43:48;5.80;99.90
54158;DHT22;40065;49.894;10.358;2024-02-23T04:48:50;5.70;99.90
54158;DHT22;40065;49.894;10.358;2024-02-23T04:53:53;5.70;99.90
54158;DHT22;40065;49.894;10.358;2024-02-23T04:58:54;5.60;99.90
54158;DHT22;40065;49.894;10.358;2024-02-23T05:03:56;5.50;99.90
54158;DHT22;40065;49.894;10.358;2024-02-23T05:08:58;5.60;99.90
54158;DHT22;40065;49.894;10.358;2024-02-23T05:14:00;5.60;99.90
54158;DHT22;40065;49.894;10.358;2024-02-23T05:19:02;5.60;99.90
54158;DHT22;40065;49.894;10.358;2024-02-23T05:24:04;5.60;99.90
54158;DHT22;40065;49.894;10.358;2024-02-23T05:29:08;5.60;99.90
54158;DHT22;40065;49.894;10.358;2024-02-23T05:34:10;5.60;99.90
54158;DHT22;40065;49.894;10.358;2024-02-23T05:39:12;5.60;99.90
54158;DHT22;40065;49.894;10.358;2024-02-23T05:44:14;5.60;99.90
54158;DHT22;40065;49.894;10.358;2024-02-23T05:49:16;5.60;99.90
54158;DHT22;40065;49.894;10.358;2024-02-23T05:54:18;5.60;99.90
54158;DHT22;40065;49.894;10.358;2024-02-23T05:59:21;5.60;99.90
54158;DHT22;40065;49.894;10.358;2024-02-23T06:04:23;5.70;99.90
54158;DHT22;40065;49.894;10.358;2024-02-23T06:09:25;5.70;99.90
54158;DHT22;40065;49.894;10.358;2024-02-23T06:14:27;5.50;99.90
54158;DHT22;40065;49.894;10.358;2024-02-23T06:19:29;5.50;99.90
54158;DHT22;40065;49.894;10.358;2024-02-23T06:24:32;5.40;99.90
54158;DHT22;40065;49.894;10.358;2024-02-23T06:29:35;5.40;99.90
54158;DHT22;40065;49.894;10.358;2024-02-23T06:34:37;5.30;99.90
54158;DHT22;40065;49.894;10.358;2024-02-23T06:39:39;5.20;99.90
54158;DHT22;40065;49.894;10.358;2024-02-23T06:44:41;5.20;99.90
54158;DHT22;40065;49.894;10.358;2024-02-23T06:49:43;5.20;99.90
54158;DHT22;40065;49.894;10.358;2024-02-23T06:54:45;5.20;99.90
54158;DHT22;40065;49.894;10.358;2024-02-23T06:59:47;5.30;99.90
54158;DHT22;40065;49.894;10.358;2024-02-23T07:04:49;5.40;99.90
54158;DHT22;40065;49.894;10.358;2024-02-23T07:09:51;5.40;99.90
54158;DHT22;40065;49.894;10.358;2024-02-23T07:14:53;5.50;99.90
54158;DHT22;40065;49.894;10.358;2024-02-23T07:19:55;5.60;99.90
54158;DHT22;40065;49.894;10.358;2024-02-23T07:25:05;5.70;99.90
54158;DHT22;40065;49.894;10.358;2024-02-23T07:30:08;5.70;99.90
54158;DHT22;40065;49.894;10.358;2024-02-23T07:35:11;5.70;99.90
54158;DHT22;40065;49.894;10.358;2024-02-23T07:40:13;5.70;99.90
54158;DHT22;40065;49.894;10.358;2024-02-23T07:45:19;5.70;99.90
54158;DHT22;40065;49.894;10.358;2024-02-23T07:50:21;5.70;99.90
54158;DHT22;40065;49.894;10.358;2024-02-23T07:55:23;5.70;99.90
54158;DHT22;40065;49.894;10.358;2024-02-23T08:00:25;5.60;99.90
54158;DHT22;40065;49.894;10.358;2024-02-23T08:05:28;5.60;99.90
54158;DHT22;40065;49.894;10.358;2024-02-23T08:10:30;5.70;99.90
54158;DHT22;40065;49.894;10.358;2024-02-23T08:15:32;5.80;99.90
54158;DHT22;40065;49.894;10.358;2024-02-23T08:20:34;5.90;99.90
54158;DHT22;40065;49.894;10.358;2024-02-23T08:25:36;6.00;99.90
54158;DHT22;40065;49.894;10.358;2024-02-23T08:30:38;6.10;99.90
54158;DHT22;40065;49.894;10.358;2024-02-23T08:35:40;6.20;99.90
54158;DHT22;40065;49.894;10.358;2024-02-23T08:40:42;6.30;99.90
54158;DHT22;40065;49.894;10.358;2024-02-23T08:45:44;6.40;99.90
54158;DHT22;40065;49.894;10.358;2024-02-23T08:50:46;6.50;99.90
54158;DHT22;40065;49.894;10.358;2024-02-23T08:55:48;6.50;99.90
54158;DHT22;40065;49.894;10.358;2024-02-23T09:00:50;6.60;99.90
54158;DHT22;40065;49.894;10.358;2024-02-23T09:05:52;6.60;99.90
54158;DHT22;40065;49.894;10.358;2024-02-23T09:10:54;6.70;99.90
54158;DHT22;40065;49.894;10.358;2024-02-23T09:15:56;6.60;99.90
54158;DHT22;40065;49.894;10.358;2024-02-23T09:20:59;6.70;99.90
54158;DHT22;40065;49.894;10.358;2024-02-23T09:26:01;6.70;99.90
54158;DHT22;40065;49.894;10.358;2024-02-23T09:31:03;6.80;99.90
54158;DHT22;40065;49.894;10.358;2024-02-23T09:36:06;6.80;99.90
54158;DHT22;40065;49.894;10.358;2024-02-23T09:41:19;6.80;99.90
54158;DHT22;40065;49.894;10.358;2024-02-23T09:46:21;6.90;99.90
54158;DHT22;40065;49.894;10.358;2024-02-23T09:51:24;7.00;99.90
54158;DHT22;40065;49.894;10.358;2024-02-23T09:56:28;7.20;99.90
54158;DHT22;40065;49.894;10.358;2024-02-23T10:01:32;7.40;99.90
54158;DHT22;40065;49.894;10.358;2024-02-23T10:06:34;7.40;99.90
54158;DHT22;40065;49.894;10.358;2024-02-23T10:11:36;7.40;99.90
54158;DHT22;40065;49.894;10.358;2024-02-23T10:16:38;7.40;99.90
54158;DHT22;40065;49.894;10.358;2024-02-23T10:21:40;7.50;99.90
54158;DHT22;40065;49.894;10.358;2024-02-23T10:26:42;7.50;99.90
54158;DHT22;40065;49.894;10.358;2024-02-23T10:31:46;7.20;99.90
54158;DHT22;40065;49.894;10.358;2024-02-23T10:36:52;7.20;99.90
54158;DHT22;40065;49.894;10.358;2024-02-23T10:42:00;7.10;99.90
54158;DHT22;40065;49.894;10.358;2024-02-23T10:47:04;7.20;99.90
54158;DHT22;40065;49.894;10.358;2024-02-23T10:52:07;7.10;99.90
54158;DHT22;40065;49.894;10.358;2024-02-23T10:57:11;7.10;99.90
54158;DHT22;40065;49.894;10.358;2024-02-23T11:02:20;7.20;99.90
54158;DHT22;40065;49.894;10.358;2024-02-23T11:07:22;7.30;99.90
54158;DHT22;40065;49.894;10.358;2024-02-23T11:12:29;7.50;99.90
54158;DHT22;40065;49.894;10.358;2024-02-23T11:17:32;7.60;99.90
54158;DHT22;40065;49.894;10.358;2024-02-23T11:22:35;7.70;99.90
54158;DHT22;40065;49.894;10.358;2024-02-23T11:27:40;7.60;99.90
54158;DHT22;40065;49.894;10.358;2024-02-23T11:32:45;7.50;99.90
54158;DHT22;40065;49.894;10.358;2024-02-23T11:42:51;7.50;99.90
54158;DHT22;40065;49.894;10.358;2024-02-23T11:47:53;7.60;99.90
54158;DHT22;40065;49.894;10.358;2024-02-23T11:52:55;7.60;99.90
54158;DHT22;40065;49.894;10.358;2024-02-23T11:57:57;7.60;99.90
54158;DHT22;40065;49.894;10.358;2024-02-23T12:03:09;7.70;99.90
54158;DHT22;40065;49.894;10.358;2024-02-23T12:08:11;7.80;99.90
54158;DHT22;40065;49.894;10.358;2024-02-23T12:13:13;7.70;99.90
54158;DHT22;40065;49.894;10.358;2024-02-23T12:18:15;7.80;99.90
54158;DHT22;40065;49.894;10.358;2024-02-23T12:23:17;7.80;99.90
54158;DHT22;40065;49.894;10.358;2024-02-23T12:28:19;7.80;99.90
54158;DHT22;40065;49.894;10.358;2024-02-23T12:33:21;7.80;99.90
54158;DHT22;40065;49.894;10.358;2024-02-23T12:38:24;7.90;99.90
54158;DHT22;40065;49.894;10.358;2024-02-23T12:43:26;7.80;99.90
54158;DHT22;40065;49.894;10.358;2024-02-23T12:48:29;7.80;99.90
54158;DHT22;40065;49.894;10.358;2024-02-23T12:53:36;7.90;99.90
54158;DHT22;40065;49.894;10.358;2024-02-23T12:58:41;7.80;99.90
54158;DHT22;40065;49.894;10.358;2024-02-23T13:03:43;7.80;99.90
54158;DHT22;40065;49.894;10.358;2024-02-23T13:08:45;7.80;99.90
54158;DHT22;40065;49.894;10.358;2024-02-23T13:13:48;8.00;99.90
54158;DHT22;40065;49.894;10.358;2024-02-23T13:18:50;8.10;99.90
54158;DHT22;40065;49.894;10.358;2024-02-23T13:23:52;8.40;99.90
54158;DHT22;40065;49.894;10.358;2024-02-23T13:28:54;8.30;99.90
54158;DHT22;40065;49.894;10.358;2024-02-23T13:33:55;8.20;99.90
54158;DHT22;40065;49.894;10.358;2024-02-23T13:38:58;8.30;99.90
54158;DHT22;40065;49.894;10.358;2024-02-23T13:44:02;8.40;99.90
54158;DHT22;40065;49.894;10.358;2024-02-23T13:49:06;8.40;99.90
54158;DHT22;40065;49.894;10.358;2024-02-23T13:54:08;8.30;99.90
54158;DHT22;40065;49.894;10.358;2024-02-23T13:59:10;8.50;99.90
54158;DHT22;40065;49.894;10.358;2024-02-23T14:04:12;8.60;99.90
54158;DHT22;40065;49.894;10.358;2024-02-23T14:09:14;8.50;99.90
54158;DHT22;40065;49.894;10.358;2024-02-23T14:14:16;8.60;99.90
54158;DHT22;40065;49.894;10.358;2024-02-23T14:19:19;8.60;99.90
54158;DHT22;40065;49.894;10.358;2024-02-23T14:24:22;8.60;99.90
54158;DHT22;40065;49.894;10.358;2024-02-23T14:29:24;8.60;99.90
54158;DHT22;40065;49.894;10.358;2024-02-23T14:34:26;8.40;99.90
54158;DHT22;40065;49.894;10.358;2024-02-23T14:39:27;8.60;99.90
54158;DHT22;40065;49.894;10.358;2024-02-23T14:44:29;8.70;99.90
54158;DHT22;40065;49.894;10.358;2024-02-23T14:49:32;8.60;99.90
54158;DHT22;40065;49.894;10.358;2024-02-23T14:54:34;8.60;99.90
54158;DHT22;40065;49.894;10.358;2024-02-23T14:59:36;9.00;99.90
54158;DHT22;40065;49.894;10.358;2024-02-23T15:04:41;9.20;99.90
54158;DHT22;40065;49.894;10.358;2024-02-23T15:09:43;9.00;99.90
54158;DHT22;40065;49.894;10.358;2024-02-23T15:14:45;9.00;99.90
54158;DHT22;40065;49.894;10.358;2024-02-23T15:19:47;8.80;99.90
54158;DHT22;40065;49.894;10.358;2024-02-23T15:24:48;8.60;99.90
54158;DHT22;40065;49.894;10.358;2024-02-23T15:29:51;8.60;99.90
54158;DHT22;40065;49.894;10.358;2024-02-23T15:34:53;8.40;99.90
54158;DHT22;40065;49.894;10.358;2024-02-23T15:39:55;8.60;99.90
54158;DHT22;40065;49.894;10.358;2024-02-23T15:44:57;8.50;99.90
54158;DHT22;40065;49.894;10.358;2024-02-23T15:49:59;8.30;99.90
54158;DHT22;40065;49.894;10.358;2024-02-23T15:55:21;8.30;99.90
54158;DHT22;40065;49.894;10.358;2024-02-23T16:00:23;8.10;99.90
54158;DHT22;40065;49.894;10.358;2024-02-23T16:05:25;8.10;99.90
54158;DHT22;40065;49.894;10.358;2024-02-23T16:10:29;8.10;99.90
54158;DHT22;40065;49.894;10.358;2024-02-23T16:15:30;7.90;99.90
54158;DHT22;40065;49.894;10.358;2024-02-23T16:20:32;7.70;99.90
54158;DHT22;40065;49.894;10.358;2024-02-23T16:25:35;7.60;99.90
54158;DHT22;40065;49.894;10.358;2024-02-23T16:30:38;7.60;99.90
54158;DHT22;40065;49.894;10.358;2024-02-23T16:35:40;7.40;99.90
54158;DHT22;40065;49.894;10.358;2024-02-23T16:40:42;7.20;99.90
54158;DHT22;40065;49.894;10.358;2024-02-23T16:45:44;7.00;99.90
54158;DHT22;40065;49.894;10.358;2024-02-23T16:50:46;7.10;99.90
54158;DHT22;40065;49.894;10.358;2024-02-23T16:55:49;7.00;99.90
54158;DHT22;40065;49.894;10.358;2024-02-23T17:00:50;6.80;99.90
54158;DHT22;40065;49.894;10.358;2024-02-23T17:05:55;6.70;99.90
54158;DHT22;40065;49.894;10.358;2024-02-23T17:10:57;6.40;99.90
54158;DHT22;40065;49.894;10.358;2024-02-23T17:15:59;6.30;99.90
54158;DHT22;40065;49.894;10.358;2024-02-23T17:21:00;6.20;99.90
54158;DHT22;40065;49.894;10.358;2024-02-23T17:26:03;6.00;99.90
54158;DHT22;40065;49.894;10.358;2024-02-23T17:31:06;5.80;99.90
54158;DHT22;40065;49.894;10.358;2024-02-23T17:36:08;5.60;99.90
54158;DHT22;40065;49.894;10.358;2024-02-23T17:41:10;5.50;99.90
54158;DHT22;40065;49.894;10.358;2024-02-23T17:46:14;5.60;99.90
54158;DHT22;40065;49.894;10.358;2024-02-23T17:51:16;5.60;99.90
54158;DHT22;40065;49.894;10.358;2024-02-23T17:56:19;5.80;99.90
54158;DHT22;40065;49.894;10.358;2024-02-23T18:01:21;5.70;99.90
54158;DHT22;40065;49.894;10.358;2024-02-23T18:06:23;5.50;99.90
54158;DHT22;40065;49.894;10.358;2024-02-23T18:11:25;5.30;99.90
54158;DHT22;40065;49.894;10.358;2024-02-23T18:16:27;5.20;99.90
54158;DHT22;40065;49.894;10.358;2024-02-23T18:21:30;5.10;99.90
54158;DHT22;40065;49.894;10.358;2024-02-23T18:26:32;5.10;99.90
54158;DHT22;40065;49.894;10.358;2024-02-23T18:31:34;4.90;99.90
54158;DHT22;40065;49.894;10.358;2024-02-23T18:36:36;4.70;99.90
54158;DHT22;40065;49.894;10.358;2024-02-23T18:41:38;4.60;99.90
54158;DHT22;40065;49.894;10.358;2024-02-23T18:46:40;4.60;99.90
54158;DHT22;40065;49.894;10.358;2024-02-23T18:51:42;4.50;99.90
54158;DHT22;40065;49.894;10.358;2024-02-23T18:56:44;4.50;99.90
54158;DHT22;40065;49.894;10.358;2024-02-23T19:01:45;4.40;99.90
54158;DHT22;40065;49.894;10.358;2024-02-23T19:06:48;4.10;99.90
54158;DHT22;40065;49.894;10.358;2024-02-23T19:11:50;4.10;99.90
54158;DHT22;40065;49.894;10.358;2024-02-23T19:16:52;3.90;99.90
54158;DHT22;40065;49.894;10.358;2024-02-23T19:21:54;3.90;99.90
54158;DHT22;40065;49.894;10.358;2024-02-23T19:26:56;3.90;99.90
54158;DHT22;40065;49.894;10.358;2024-02-23T19:31:58;3.90;99.90
54158;DHT22;40065;49.894;10.358;2024-02-23T19:37:00;3.80;99.90
54158;DHT22;40065;49.894;10.358;2024-02-23T19:42:02;3.80;99.90
54158;DHT22;40065;49.894;10.358;2024-02-23T19:47:04;3.80;99.90
54158;DHT22;40065;49.894;10.358;2024-02-23T19:52:08;3.70;99.90
54158;DHT22;40065;49.894;10.358;2024-02-23T19:57:11;3.80;99.90
54158;DHT22;40065;49.894;10.358;2024-02-23T20:02:13;3.70;99.90
54158;DHT22;40065;49.894;10.358;2024-02-23T20:07:15;3.60;99.90
54158;DHT22;40065;49.894;10.358;2024-02-23T20:12:18;3.60;99.90
54158;DHT22;40065;49.894;10.358;2024-02-23T20:17:21;3.60;99.90
54158;DHT22;40065;49.894;10.358;2024-02-23T20:22:23;3.50;99.90
54158;DHT22;40065;49.894;10.358;2024-02-23T20:27:27;3.40;99.90
54158;DHT22;40065;49.894;10.358;2024-02-23T20:32:28;3.30;99.90
54158;DHT22;40065;49.894;10.358;2024-02-23T20:37:31;3.20;99.90
54158;DHT22;40065;49.894;10.358;2024-02-23T20:42:33;3.10;99.90
54158;DHT22;40065;49.894;10.358;2024-02-23T20:47:35;3.10;99.90
54158;DHT22;40065;49.894;10.358;2024-02-23T20:52:37;3.20;99.90
54158;DHT22;40065;49.894;10.358;2024-02-23T20:57:39;3.30;99.90
54158;DHT22;40065;49.894;10.358;2024-02-23T21:02:41;3.20;99.90
54158;DHT22;40065;49.894;10.358;2024-02-23T21:07:43;3.20;99.90
54158;DHT22;40065;49.894;10.358;2024-02-23T21:12:46;3.20;99.90
54158;DHT22;40065;49.894;10.358;2024-02-23T21:17:48;3.40;99.90
54158;DHT22;40065;49.894;10.358;2024-02-23T21:22:51;3.50;99.90
54158;DHT22;40065;49.894;10.358;2024-02-23T21:27:52;3.50;99.90
54158;DHT22;40065;49.894;10.358;2024-02-23T21:32:55;3.50;99.90
54158;DHT22;40065;49.894;10.358;2024-02-23T21:37:57;3.60;99.90
54158;DHT22;40065;49.894;10.358;2024-02-23T21:42:59;3.60;99.90
54158;DHT22;40065;49.894;10.358;2024-02-23T21:48:01;3.50;99.90
54158;DHT22;40065;49.894;10.358;2024-02-23T21:53:04;3.40;99.90
54158;DHT22;40065;49.894;10.358;2024-02-23T21:58:06;3.20;99.90
54158;DHT22;40065;49.894;10.358;2024-02-23T22:03:07;3.20;99.90
54158;DHT22;40065;49.894;10.358;2024-02-23T22:08:09;3.00;99.90
54158;DHT22;40065;49.894;10.358;2024-02-23T22:13:11;3.10;99.90
54158;DHT22;40065;49.894;10.358;2024-02-23T22:18:14;3.10;99.90
54158;DHT22;40065;49.894;10.358;2024-02-23T22:23:16;3.20;99.90
54158;DHT22;40065;49.894;10.358;2024-02-23T22:28:18;3.10;99.90
54158;DHT22;40065;49.894;10.358;2024-02-23T22:33:20;3.00;99.90
54158;DHT22;40065;49.894;10.358;2024-02-23T22:38:22;3.00;99.90
54158;DHT22;40065;49.894;10.358;2024-02-23T22:43:24;3.00;99.90
54158;DHT22;40065;49.894;10.358;2024-02-23T22:48:30;2.90;99.90
54158;DHT22;40065;49.894;10.358;2024-02-23T22:53:32;2.80;99.90
54158;DHT22;40065;49.894;10.358;2024-02-23T22:58:36;2.80;99.90
54158;DHT22;40065;49.894;10.358;2024-02-23T23:03:38;2.90;99.90
54158;DHT22;40065;49.894;10.358;2024-02-23T23:08:40;2.90;99.90
54158;DHT22;40065;49.894;10.358;2024-02-23T23:13:42;3.00;99.90
54158;DHT22;40065;49.894;10.358;2024-02-23T23:18:43;3.00;99.90
54158;DHT22;40065;49.894;10.358;2024-02-23T23:23:45;2.90;99.90
54158;DHT22;40065;49.894;10.358;2024-02-23T23:28:47;2.80;99.90
54158;DHT22;40065;49.894;10.358;2024-02-23T23:33:51;2.70;99.90
54158;DHT22;40065;49.894;10.358;2024-02-23T23:38:53;2.70;99.90
54158;DHT22;40065;49.894;10.358;2024-02-23T23:43:55;2.50;99.90
54158;DHT22;40065;49.894;10.358;2024-02-23T23:48:56;2.40;99.90
54158;DHT22;40065;49.894;10.358;2024-02-23T23:53:58;2.30;99.90
54158;DHT22;40065;49.894;10.358;2024-02-23T23:59:00;2.20;99.90
